sensor_id;sensor_type;location;lat;lon;timestamp;P1;durP1;ratioP1;P2;durP2;ratioP2
1446;SDS011;717;51.522;7.266;2023-04-16T00:00:59;17.17;;;11.57;;
1446;SDS011;717;51.522;7.266;2023-04-16T00:03:27;19.58;;;11.70;;
1446;SDS011;717;51.522;7.266;2023-04-16T00:05:56;19.35;;;11.55;;
1446;SDS011;717;51.522;7.266;2023-04-16T00:08:25;18.17;;;11.88;;
1446;SDS011;717;51.522;7.266;2023-04-16T00:10:56;16.58;;;12.07;;
1446;SDS011;717;51.522;7.266;2023-04-16T00:13:24;16.83;;;11.93;;
1446;SDS011;717;51.522;7.266;2023-04-16T00:15:53;18.88;;;11.27;;
1446;SDS011;717;51.522;7.266;2023-04-16T00:18:21;17.65;;;12.30;;
1446;SDS011;717;51.522;7.266;2023-04-16T00:20:50;18.48;;;11.55;;
1446;SDS011;717;51.522;7.266;2023-04-16T00:23:19;17.73;;;12.40;;
1446;SDS011;717;51.522;7.266;2023-04-16T00:25:49;18.08;;;11.30;;
1446;SDS011;717;51.522;7.266;2023-04-16T00:28:20;18.90;;;11.55;;
1446;SDS011;717;51.522;7.266;2023-04-16T00:30:48;16.73;;;10.80;;
1446;SDS011;717;51.522;7.266;2023-04-16T00:33:17;17.02;;;11.23;;
1446;SDS011;717;51.522;7.266;2023-04-16T00:35:46;17.55;;;12.00;;
1446;SDS011;717;51.522;7.266;2023-04-16T00:38:15;17.65;;;11.18;;
1446;SDS011;717;51.522;7.266;2023-04-16T00:40:43;17.73;;;11.20;;
1446;SDS011;717;51.522;7.266;2023-04-16T00:43:21;18.83;;;11.43;;
1446;SDS011;717;51.522;7.266;2023-04-16T00:45:49;18.15;;;11.60;;
1446;SDS011;717;51.522;7.266;2023-04-16T00:48:20;14.50;;;11.18;;
1446;SDS011;717;51.522;7.266;2023-04-16T00:50:48;17.00;;;11.82;;
1446;SDS011;717;51.522;7.266;2023-04-16T00:53:19;19.45;;;12.45;;
1446;SDS011;717;51.522;7.266;2023-04-16T00:55:47;19.55;;;11.65;;
1446;SDS011;717;51.522;7.266;2023-04-16T00:58:16;16.77;;;11.38;;
1446;SDS011;717;51.522;7.266;2023-04-16T01:00:48;17.70;;;11.88;;
1446;SDS011;717;51.522;7.266;2023-04-16T01:03:18;16.67;;;10.73;;
1446;SDS011;717;51.522;7.266;2023-04-16T01:05:46;16.70;;;11.27;;
1446;SDS011;717;51.522;7.266;2023-04-16T01:08:16;15.52;;;10.70;;
1446;SDS011;717;51.522;7.266;2023-04-16T01:10:45;15.77;;;11.73;;
1446;SDS011;717;51.522;7.266;2023-04-16T01:13:14;18.55;;;12.35;;
1446;SDS011;717;51.522;7.266;2023-04-16T01:15:42;18.52;;;11.57;;
1446;SDS011;717;51.522;7.266;2023-04-16T01:18:16;18.90;;;12.27;;
1446;SDS011;717;51.522;7.266;2023-04-16T01:20:49;17.42;;;12.10;;
1446;SDS011;717;51.522;7.266;2023-04-16T01:23:18;20.33;;;12.30;;
1446;SDS011;717;51.522;7.266;2023-04-16T01:25:47;20.50;;;12.73;;
1446;SDS011;717;51.522;7.266;2023-04-16T01:28:15;16.98;;;11.45;;
1446;SDS011;717;51.522;7.266;2023-04-16T01:30:44;17.60;;;11.50;;
1446;SDS011;717;51.522;7.266;2023-04-16T01:33:13;20.15;;;12.27;;
1446;SDS011;717;51.522;7.266;2023-04-16T01:35:42;19.20;;;12.55;;
1446;SDS011;717;51.522;7.266;2023-04-16T01:38:13;20.52;;;12.35;;
1446;SDS011;717;51.522;7.266;2023-04-16T01:40:42;16.90;;;11.95;;
1446;SDS011;717;51.522;7.266;2023-04-16T01:43:10;16.77;;;11.90;;
1446;SDS011;717;51.522;7.266;2023-04-16T01:45:39;17.40;;;11.30;;
1446;SDS011;717;51.522;7.266;2023-04-16T01:48:08;18.98;;;12.15;;
1446;SDS011;717;51.522;7.266;2023-04-16T01:50:36;16.95;;;12.32;;
1446;SDS011;717;51.522;7.266;2023-04-16T01:53:05;20.40;;;12.00;;
1446;SDS011;717;51.522;7.266;2023-04-16T01:55:36;18.85;;;12.50;;
1446;SDS011;717;51.522;7.266;2023-04-16T01:58:05;20.02;;;12.02;;
1446;SDS011;717;51.522;7.266;2023-04-16T02:00:35;18.92;;;12.50;;
1446;SDS011;717;51.522;7.266;2023-04-16T02:03:03;19.25;;;11.48;;
1446;SDS011;717;51.522;7.266;2023-04-16T02:05:32;22.45;;;13.95;;
1446;SDS011;717;51.522;7.266;2023-04-16T02:08:00;20.75;;;12.90;;
1446;SDS011;717;51.522;7.266;2023-04-16T02:10:29;21.33;;;13.85;;
1446;SDS011;717;51.522;7.266;2023-04-16T02:13:00;20.05;;;14.05;;
1446;SDS011;717;51.522;7.266;2023-04-16T02:15:29;19.65;;;13.90;;
1446;SDS011;717;51.522;7.266;2023-04-16T02:17:57;19.48;;;13.43;;
1446;SDS011;717;51.522;7.266;2023-04-16T02:20:26;19.65;;;14.95;;
1446;SDS011;717;51.522;7.266;2023-04-16T02:22:54;21.23;;;13.10;;
1446;SDS011;717;51.522;7.266;2023-04-16T02:25:23;20.10;;;14.65;;
1446;SDS011;717;51.522;7.266;2023-04-16T02:27:51;21.08;;;13.45;;
1446;SDS011;717;51.522;7.266;2023-04-16T02:30:22;21.50;;;13.57;;
1446;SDS011;717;51.522;7.266;2023-04-16T02:32:51;18.08;;;12.95;;
1446;SDS011;717;51.522;7.266;2023-04-16T02:35:19;19.00;;;13.27;;
1446;SDS011;717;51.522;7.266;2023-04-16T02:37:48;16.77;;;12.82;;
1446;SDS011;717;51.522;7.266;2023-04-16T02:40:16;21.38;;;13.45;;
1446;SDS011;717;51.522;7.266;2023-04-16T02:42:45;18.83;;;13.68;;
1446;SDS011;717;51.522;7.266;2023-04-16T02:45:13;19.17;;;12.75;;
1446;SDS011;717;51.522;7.266;2023-04-16T02:47:45;19.63;;;13.35;;
1446;SDS011;717;51.522;7.266;2023-04-16T02:50:13;19.30;;;13.02;;
1446;SDS011;717;51.522;7.266;2023-04-16T02:52:42;18.98;;;13.15;;
1446;SDS011;717;51.522;7.266;2023-04-16T02:55:11;21.70;;;12.55;;
1446;SDS011;717;51.522;7.266;2023-04-16T02:57:40;20.05;;;12.65;;
1446;SDS011;717;51.522;7.266;2023-04-16T03:00:09;19.05;;;13.88;;
1446;SDS011;717;51.522;7.266;2023-04-16T03:02:38;20.75;;;12.43;;
1446;SDS011;717;51.522;7.266;2023-04-16T03:05:09;17.90;;;12.98;;
1446;SDS011;717;51.522;7.266;2023-04-16T03:07:38;19.10;;;12.63;;
1446;SDS011;717;51.522;7.266;2023-04-16T03:10:07;18.35;;;12.05;;
1446;SDS011;717;51.522;7.266;2023-04-16T03:12:36;17.63;;;12.65;;
1446;SDS011;717;51.522;7.266;2023-04-16T03:15:05;20.42;;;13.55;;
1446;SDS011;717;51.522;7.266;2023-04-16T03:17:34;20.88;;;13.60;;
1446;SDS011;717;51.522;7.266;2023-04-16T03:20:03;19.67;;;13.68;;
1446;SDS011;717;51.522;7.266;2023-04-16T03:22:35;18.42;;;12.93;;
1446;SDS011;717;51.522;7.266;2023-04-16T03:25:04;20.45;;;13.70;;
1446;SDS011;717;51.522;7.266;2023-04-16T03:27:34;18.88;;;13.93;;
1446;SDS011;717;51.522;7.266;2023-04-16T03:30:04;20.00;;;13.75;;
1446;SDS011;717;51.522;7.266;2023-04-16T03:32:33;19.73;;;13.95;;
1446;SDS011;717;51.522;7.266;2023-04-16T03:35:02;20.92;;;13.82;;
1446;SDS011;717;51.522;7.266;2023-04-16T03:37:31;20.90;;;13.00;;
1446;SDS011;717;51.522;7.266;2023-04-16T03:40:03;20.52;;;14.27;;
1446;SDS011;717;51.522;7.266;2023-04-16T03:42:32;19.10;;;13.70;;
1446;SDS011;717;51.522;7.266;2023-04-16T03:45:00;19.70;;;14.13;;
1446;SDS011;717;51.522;7.266;2023-04-16T03:47:29;22.40;;;13.85;;
1446;SDS011;717;51.522;7.266;2023-04-16T03:49:57;29.38;;;13.95;;
1446;SDS011;717;51.522;7.266;2023-04-16T03:52:26;22.15;;;13.60;;
1446;SDS011;717;51.522;7.266;2023-04-16T03:54:55;21.85;;;14.25;;
1446;SDS011;717;51.522;7.266;2023-04-16T03:57:26;25.75;;;16.13;;
1446;SDS011;717;51.522;7.266;2023-04-16T03:59:54;21.77;;;14.88;;
1446;SDS011;717;51.522;7.266;2023-04-16T04:02:23;27.98;;;16.77;;
1446;SDS011;717;51.522;7.266;2023-04-16T04:04:51;26.40;;;16.48;;
1446;SDS011;717;51.522;7.266;2023-04-16T04:07:20;27.77;;;16.38;;
1446;SDS011;717;51.522;7.266;2023-04-16T04:09:48;28.67;;;16.25;;
1446;SDS011;717;51.522;7.266;2023-04-16T04:12:17;25.02;;;15.45;;
1446;SDS011;717;51.522;7.266;2023-04-16T04:14:48;28.70;;;17.52;;
1446;SDS011;717;51.522;7.266;2023-04-16T04:17:16;26.27;;;16.33;;
1446;SDS011;717;51.522;7.266;2023-04-16T04:19:45;28.40;;;16.88;;
1446;SDS011;717;51.522;7.266;2023-04-16T04:22:13;26.15;;;16.70;;
1446;SDS011;717;51.522;7.266;2023-04-16T04:24:42;30.75;;;17.88;;
1446;SDS011;717;51.522;7.266;2023-04-16T04:27:10;26.55;;;17.85;;
1446;SDS011;717;51.522;7.266;2023-04-16T04:29:38;26.45;;;17.10;;
1446;SDS011;717;51.522;7.266;2023-04-16T04:32:09;30.98;;;17.42;;
1446;SDS011;717;51.522;7.266;2023-04-16T04:34:38;28.98;;;17.52;;
1446;SDS011;717;51.522;7.266;2023-04-16T04:37:06;30.95;;;18.85;;
1446;SDS011;717;51.522;7.266;2023-04-16T04:39:35;30.95;;;17.45;;
1446;SDS011;717;51.522;7.266;2023-04-16T04:42:03;30.67;;;18.83;;
1446;SDS011;717;51.522;7.266;2023-04-16T04:44:32;28.13;;;18.67;;
1446;SDS011;717;51.522;7.266;2023-04-16T04:47:00;28.35;;;17.95;;
1446;SDS011;717;51.522;7.266;2023-04-16T04:49:31;30.65;;;18.30;;
1446;SDS011;717;51.522;7.266;2023-04-16T04:52:00;29.15;;;17.00;;
1446;SDS011;717;51.522;7.266;2023-04-16T04:54:29;31.02;;;18.15;;
1446;SDS011;717;51.522;7.266;2023-04-16T04:56:58;29.60;;;18.63;;
1446;SDS011;717;51.522;7.266;2023-04-16T04:59:26;29.73;;;18.05;;
1446;SDS011;717;51.522;7.266;2023-04-16T05:01:55;30.58;;;18.35;;
1446;SDS011;717;51.522;7.266;2023-04-16T05:04:23;29.33;;;19.05;;
1446;SDS011;717;51.522;7.266;2023-04-16T05:06:54;27.25;;;16.73;;
1446;SDS011;717;51.522;7.266;2023-04-16T05:09:23;29.77;;;18.02;;
1446;SDS011;717;51.522;7.266;2023-04-16T05:11:51;31.95;;;18.55;;
1446;SDS011;717;51.522;7.266;2023-04-16T05:14:21;31.30;;;18.73;;
1446;SDS011;717;51.522;7.266;2023-04-16T05:16:50;28.85;;;17.83;;
1446;SDS011;717;51.522;7.266;2023-04-16T05:19:18;30.10;;;18.27;;
1446;SDS011;717;51.522;7.266;2023-04-16T05:21:47;28.60;;;18.88;;
1446;SDS011;717;51.522;7.266;2023-04-16T05:24:18;34.47;;;19.85;;
1446;SDS011;717;51.522;7.266;2023-04-16T05:26:46;29.40;;;19.10;;
1446;SDS011;717;51.522;7.266;2023-04-16T05:29:15;30.02;;;18.77;;
1446;SDS011;717;51.522;7.266;2023-04-16T05:31:44;30.58;;;20.17;;
1446;SDS011;717;51.522;7.266;2023-04-16T05:34:12;29.45;;;19.42;;
1446;SDS011;717;51.522;7.266;2023-04-16T05:36:41;29.42;;;18.38;;
1446;SDS011;717;51.522;7.266;2023-04-16T05:39:09;29.98;;;19.58;;
1446;SDS011;717;51.522;7.266;2023-04-16T05:41:40;30.40;;;19.08;;
1446;SDS011;717;51.522;7.266;2023-04-16T05:44:09;28.73;;;20.13;;
1446;SDS011;717;51.522;7.266;2023-04-16T05:46:39;27.08;;;18.63;;
1446;SDS011;717;51.522;7.266;2023-04-16T05:49:07;30.90;;;19.33;;
1446;SDS011;717;51.522;7.266;2023-04-16T05:51:37;29.33;;;19.55;;
1446;SDS011;717;51.522;7.266;2023-04-16T05:54:06;31.33;;;20.00;;
1446;SDS011;717;51.522;7.266;2023-04-16T05:56:34;30.17;;;19.35;;
1446;SDS011;717;51.522;7.266;2023-04-16T05:59:05;29.95;;;20.00;;
1446;SDS011;717;51.522;7.266;2023-04-16T06:01:34;30.25;;;20.17;;
1446;SDS011;717;51.522;7.266;2023-04-16T06:04:02;34.13;;;20.67;;
1446;SDS011;717;51.522;7.266;2023-04-16T06:06:31;31.92;;;20.15;;
1446;SDS011;717;51.522;7.266;2023-04-16T06:09:01;28.95;;;19.02;;
1446;SDS011;717;51.522;7.266;2023-04-16T06:11:30;28.17;;;18.88;;
1446;SDS011;717;51.522;7.266;2023-04-16T06:13:58;28.63;;;20.75;;
1446;SDS011;717;51.522;7.266;2023-04-16T06:16:29;31.67;;;20.00;;
1446;SDS011;717;51.522;7.266;2023-04-16T06:18:58;29.92;;;20.00;;
1446;SDS011;717;51.522;7.266;2023-04-16T06:21:27;28.25;;;19.70;;
1446;SDS011;717;51.522;7.266;2023-04-16T06:23:55;28.58;;;20.08;;
1446;SDS011;717;51.522;7.266;2023-04-16T06:26:24;28.35;;;20.05;;
1446;SDS011;717;51.522;7.266;2023-04-16T06:28:52;27.17;;;19.20;;
1446;SDS011;717;51.522;7.266;2023-04-16T06:31:21;30.67;;;19.63;;
1446;SDS011;717;51.522;7.266;2023-04-16T06:33:52;29.83;;;19.42;;
1446;SDS011;717;51.522;7.266;2023-04-16T06:36:21;28.95;;;20.27;;
1446;SDS011;717;51.522;7.266;2023-04-16T06:38:51;28.05;;;19.92;;
1446;SDS011;717;51.522;7.266;2023-04-16T06:41:20;30.75;;;20.55;;
1446;SDS011;717;51.522;7.266;2023-04-16T06:43:50;26.38;;;19.67;;
1446;SDS011;717;51.522;7.266;2023-04-16T06:46:19;28.92;;;19.85;;
1446;SDS011;717;51.522;7.266;2023-04-16T06:48:47;24.83;;;19.20;;
1446;SDS011;717;51.522;7.266;2023-04-16T06:51:18;26.80;;;19.50;;
1446;SDS011;717;51.522;7.266;2023-04-16T06:53:47;29.05;;;20.05;;
1446;SDS011;717;51.522;7.266;2023-04-16T06:56:16;27.05;;;19.80;;
1446;SDS011;717;51.522;7.266;2023-04-16T06:58:44;25.42;;;20.20;;
1446;SDS011;717;51.522;7.266;2023-04-16T07:01:13;28.25;;;19.90;;
1446;SDS011;717;51.522;7.266;2023-04-16T07:03:41;28.95;;;21.58;;
1446;SDS011;717;51.522;7.266;2023-04-16T07:06:10;27.30;;;19.48;;
1446;SDS011;717;51.522;7.266;2023-04-16T07:08:41;27.08;;;20.23;;
1446;SDS011;717;51.522;7.266;2023-04-16T07:11:09;24.25;;;19.05;;
1446;SDS011;717;51.522;7.266;2023-04-16T07:13:38;26.15;;;20.20;;
1446;SDS011;717;51.522;7.266;2023-04-16T07:16:06;26.85;;;20.83;;
1446;SDS011;717;51.522;7.266;2023-04-16T07:18:35;24.98;;;19.67;;
1446;SDS011;717;51.522;7.266;2023-04-16T07:21:03;28.55;;;20.20;;
1446;SDS011;717;51.522;7.266;2023-04-16T07:23:32;27.80;;;20.98;;
1446;SDS011;717;51.522;7.266;2023-04-16T07:26:03;28.02;;;20.35;;
1446;SDS011;717;51.522;7.266;2023-04-16T07:28:32;26.23;;;20.33;;
1446;SDS011;717;51.522;7.266;2023-04-16T07:31:00;24.80;;;19.95;;
1446;SDS011;717;51.522;7.266;2023-04-16T07:33:29;28.83;;;21.05;;
1446;SDS011;717;51.522;7.266;2023-04-16T07:35:57;28.13;;;20.75;;
1446;SDS011;717;51.522;7.266;2023-04-16T07:38:26;24.33;;;19.52;;
1446;SDS011;717;51.522;7.266;2023-04-16T07:40:54;24.98;;;19.55;;
1446;SDS011;717;51.522;7.266;2023-04-16T07:43:25;25.77;;;19.02;;
1446;SDS011;717;51.522;7.266;2023-04-16T07:45:54;25.70;;;19.60;;
1446;SDS011;717;51.522;7.266;2023-04-16T07:48:22;24.88;;;18.73;;
1446;SDS011;717;51.522;7.266;2023-04-16T07:50:51;24.25;;;19.33;;
1446;SDS011;717;51.522;7.266;2023-04-16T07:53:20;27.23;;;19.33;;
1446;SDS011;717;51.522;7.266;2023-04-16T07:55:48;25.10;;;19.42;;
1446;SDS011;717;51.522;7.266;2023-04-16T07:58:16;26.50;;;20.15;;
1446;SDS011;717;51.522;7.266;2023-04-16T08:00:48;25.73;;;18.77;;
1446;SDS011;717;51.522;7.266;2023-04-16T08:03:16;24.38;;;18.73;;
1446;SDS011;717;51.522;7.266;2023-04-16T08:05:45;26.25;;;19.40;;
1446;SDS011;717;51.522;7.266;2023-04-16T08:08:13;24.15;;;19.67;;
1446;SDS011;717;51.522;7.266;2023-04-16T08:10:42;25.38;;;19.42;;
1446;SDS011;717;51.522;7.266;2023-04-16T08:13:10;23.15;;;18.67;;
1446;SDS011;717;51.522;7.266;2023-04-16T08:15:38;24.05;;;19.83;;
1446;SDS011;717;51.522;7.266;2023-04-16T08:18:09;22.67;;;18.48;;
1446;SDS011;717;51.522;7.266;2023-04-16T08:20:39;22.88;;;19.15;;
1446;SDS011;717;51.522;7.266;2023-04-16T08:23:08;23.83;;;18.15;;
1446;SDS011;717;51.522;7.266;2023-04-16T08:25:36;20.40;;;18.20;;
1446;SDS011;717;51.522;7.266;2023-04-16T08:28:05;23.20;;;18.85;;
1446;SDS011;717;51.522;7.266;2023-04-16T08:30:33;22.45;;;17.77;;
1446;SDS011;717;51.522;7.266;2023-04-16T08:33:02;23.45;;;18.85;;
1446;SDS011;717;51.522;7.266;2023-04-16T08:35:33;20.83;;;18.05;;
1446;SDS011;717;51.522;7.266;2023-04-16T08:38:02;22.75;;;18.35;;
1446;SDS011;717;51.522;7.266;2023-04-16T08:40:31;22.60;;;18.02;;
1446;SDS011;717;51.522;7.266;2023-04-16T08:43:08;21.05;;;17.45;;
1446;SDS011;717;51.522;7.266;2023-04-16T08:45:39;21.83;;;17.77;;
1446;SDS011;717;51.522;7.266;2023-04-16T08:48:08;21.90;;;18.23;;
1446;SDS011;717;51.522;7.266;2023-04-16T08:50:41;22.42;;;18.77;;
1446;SDS011;717;51.522;7.266;2023-04-16T08:53:11;21.95;;;18.27;;
1446;SDS011;717;51.522;7.266;2023-04-16T08:55:46;20.23;;;17.45;;
1446;SDS011;717;51.522;7.266;2023-04-16T08:58:17;23.55;;;18.23;;
1446;SDS011;717;51.522;7.266;2023-04-16T09:00:46;20.52;;;17.42;;
1446;SDS011;717;51.522;7.266;2023-04-16T09:03:16;23.05;;;18.35;;
1446;SDS011;717;51.522;7.266;2023-04-16T09:05:48;19.88;;;16.88;;
1446;SDS011;717;51.522;7.266;2023-04-16T09:08:17;21.08;;;17.77;;
1446;SDS011;717;51.522;7.266;2023-04-16T09:10:45;21.75;;;17.02;;
1446;SDS011;717;51.522;7.266;2023-04-16T09:13:16;21.73;;;18.48;;
1446;SDS011;717;51.522;7.266;2023-04-16T09:15:44;22.05;;;17.45;;
1446;SDS011;717;51.522;7.266;2023-04-16T09:18:13;21.85;;;17.55;;
1446;SDS011;717;51.522;7.266;2023-04-16T09:20:42;20.15;;;18.05;;
1446;SDS011;717;51.522;7.266;2023-04-16T09:23:13;21.08;;;17.83;;
1446;SDS011;717;51.522;7.266;2023-04-16T09:25:41;19.90;;;17.73;;
1446;SDS011;717;51.522;7.266;2023-04-16T09:28:10;21.67;;;17.25;;
1446;SDS011;717;51.522;7.266;2023-04-16T09:30:38;20.02;;;16.85;;
1446;SDS011;717;51.522;7.266;2023-04-16T09:33:13;22.48;;;18.63;;
1446;SDS011;717;51.522;7.266;2023-04-16T09:35:46;20.10;;;17.48;;
1446;SDS011;717;51.522;7.266;2023-04-16T09:38:18;23.65;;;18.42;;
1446;SDS011;717;51.522;7.266;2023-04-16T09:40:47;20.77;;;18.58;;
1446;SDS011;717;51.522;7.266;2023-04-16T09:43:32;22.40;;;18.17;;
1446;SDS011;717;51.522;7.266;2023-04-16T09:46:00;20.75;;;18.00;;
1446;SDS011;717;51.522;7.266;2023-04-16T09:48:31;20.63;;;17.63;;
1446;SDS011;717;51.522;7.266;2023-04-16T09:51:00;20.23;;;17.90;;
1446;SDS011;717;51.522;7.266;2023-04-16T09:53:31;19.90;;;17.63;;
1446;SDS011;717;51.522;7.266;2023-04-16T09:56:00;20.60;;;17.52;;
1446;SDS011;717;51.522;7.266;2023-04-16T09:58:30;19.63;;;17.27;;
1446;SDS011;717;51.522;7.266;2023-04-16T10:00:59;22.30;;;17.13;;
1446;SDS011;717;51.522;7.266;2023-04-16T10:03:28;20.35;;;17.08;;
1446;SDS011;717;51.522;7.266;2023-04-16T10:05:58;19.90;;;17.20;;
1446;SDS011;717;51.522;7.266;2023-04-16T10:08:28;19.15;;;17.10;;
1446;SDS011;717;51.522;7.266;2023-04-16T10:10:59;19.48;;;17.48;;
1446;SDS011;717;51.522;7.266;2023-04-16T10:13:28;19.33;;;17.13;;
1446;SDS011;717;51.522;7.266;2023-04-16T10:15:57;19.45;;;16.65;;
1446;SDS011;717;51.522;7.266;2023-04-16T10:18:27;19.13;;;16.80;;
1446;SDS011;717;51.522;7.266;2023-04-16T10:20:56;18.98;;;16.60;;
1446;SDS011;717;51.522;7.266;2023-04-16T10:23:25;18.85;;;16.73;;
1446;SDS011;717;51.522;7.266;2023-04-16T10:25:54;18.40;;;16.50;;
1446;SDS011;717;51.522;7.266;2023-04-16T10:28:26;18.70;;;16.70;;
1446;SDS011;717;51.522;7.266;2023-04-16T10:30:56;18.42;;;16.30;;
1446;SDS011;717;51.522;7.266;2023-04-16T10:33:26;17.52;;;15.73;;
1446;SDS011;717;51.522;7.266;2023-04-16T10:36:09;17.95;;;15.15;;
1446;SDS011;717;51.522;7.266;2023-04-16T10:38:39;18.77;;;16.30;;
1446;SDS011;717;51.522;7.266;2023-04-16T10:41:08;17.25;;;15.45;;
1446;SDS011;717;51.522;7.266;2023-04-16T10:43:42;18.88;;;15.88;;
1446;SDS011;717;51.522;7.266;2023-04-16T10:46:18;18.38;;;16.50;;
1446;SDS011;717;51.522;7.266;2023-04-16T10:48:48;17.40;;;15.60;;
1446;SDS011;717;51.522;7.266;2023-04-16T10:51:24;17.65;;;15.75;;
1446;SDS011;717;51.522;7.266;2023-04-16T10:53:55;17.45;;;15.68;;
1446;SDS011;717;51.522;7.266;2023-04-16T10:56:25;17.25;;;15.40;;
1446;SDS011;717;51.522;7.266;2023-04-16T10:58:58;17.20;;;15.40;;
1446;SDS011;717;51.522;7.266;2023-04-16T11:01:30;17.42;;;14.82;;
1446;SDS011;717;51.522;7.266;2023-04-16T11:03:59;18.33;;;15.15;;
1446;SDS011;717;51.522;7.266;2023-04-16T11:06:29;17.27;;;15.40;;
1446;SDS011;717;51.522;7.266;2023-04-16T11:08:57;16.98;;;14.75;;
1446;SDS011;717;51.522;7.266;2023-04-16T11:11:26;15.55;;;14.05;;
1446;SDS011;717;51.522;7.266;2023-04-16T11:14:05;15.50;;;13.90;;
1446;SDS011;717;51.522;7.266;2023-04-16T11:16:39;16.75;;;14.23;;
1446;SDS011;717;51.522;7.266;2023-04-16T11:19:14;15.45;;;13.50;;
1446;SDS011;717;51.522;7.266;2023-04-16T11:21:43;15.70;;;14.13;;
1446;SDS011;717;51.522;7.266;2023-04-16T11:24:12;15.88;;;14.30;;
1446;SDS011;717;51.522;7.266;2023-04-16T11:26:41;16.75;;;14.95;;
1446;SDS011;717;51.522;7.266;2023-04-16T11:29:14;15.60;;;14.00;;
1446;SDS011;717;51.522;7.266;2023-04-16T11:31:48;17.60;;;14.68;;
1446;SDS011;717;51.522;7.266;2023-04-16T11:34:18;16.65;;;14.70;;
1446;SDS011;717;51.522;7.266;2023-04-16T11:36:48;16.65;;;14.13;;
1446;SDS011;717;51.522;7.266;2023-04-16T11:39:17;17.25;;;15.00;;
1446;SDS011;717;51.522;7.266;2023-04-16T11:41:47;16.00;;;14.25;;
1446;SDS011;717;51.522;7.266;2023-04-16T11:44:20;14.73;;;13.23;;
1446;SDS011;717;51.522;7.266;2023-04-16T11:46:50;15.57;;;13.48;;
1446;SDS011;717;51.522;7.266;2023-04-16T11:49:28;15.50;;;13.95;;
1446;SDS011;717;51.522;7.266;2023-04-16T11:51:57;15.88;;;14.13;;
1446;SDS011;717;51.522;7.266;2023-04-16T11:54:26;15.30;;;13.80;;
1446;SDS011;717;51.522;7.266;2023-04-16T11:56:58;16.02;;;13.85;;
1446;SDS011;717;51.522;7.266;2023-04-16T11:59:31;15.65;;;14.00;;
1446;SDS011;717;51.522;7.266;2023-04-16T12:02:01;15.48;;;13.77;;
1446;SDS011;717;51.522;7.266;2023-04-16T12:04:29;15.35;;;13.48;;
1446;SDS011;717;51.522;7.266;2023-04-16T12:07:03;16.38;;;14.52;;
1446;SDS011;717;51.522;7.266;2023-04-16T12:09:36;15.77;;;14.00;;
1446;SDS011;717;51.522;7.266;2023-04-16T12:12:06;15.30;;;13.73;;
1446;SDS011;717;51.522;7.266;2023-04-16T12:14:57;16.05;;;14.00;;
1446;SDS011;717;51.522;7.266;2023-04-16T12:17:27;16.65;;;14.25;;
1446;SDS011;717;51.522;7.266;2023-04-16T12:19:57;15.60;;;14.05;;
1446;SDS011;717;51.522;7.266;2023-04-16T12:22:27;17.38;;;14.98;;
1446;SDS011;717;51.522;7.266;2023-04-16T12:24:57;16.52;;;13.88;;
1446;SDS011;717;51.522;7.266;2023-04-16T12:27:39;16.17;;;14.57;;
1446;SDS011;717;51.522;7.266;2023-04-16T12:30:15;14.80;;;13.27;;
1446;SDS011;717;51.522;7.266;2023-04-16T12:32:45;14.45;;;13.02;;
1446;SDS011;717;51.522;7.266;2023-04-16T12:35:27;16.73;;;14.25;;
1446;SDS011;717;51.522;7.266;2023-04-16T12:37:57;15.77;;;14.18;;
1446;SDS011;717;51.522;7.266;2023-04-16T12:40:27;15.75;;;14.18;;
1446;SDS011;717;51.522;7.266;2023-04-16T12:42:56;16.08;;;14.38;;
1446;SDS011;717;51.522;7.266;2023-04-16T12:45:27;16.13;;;14.57;;
1446;SDS011;717;51.522;7.266;2023-04-16T12:47:55;15.43;;;13.98;;
1446;SDS011;717;51.522;7.266;2023-04-16T12:50:24;15.57;;;13.98;;
1446;SDS011;717;51.522;7.266;2023-04-16T12:52:53;16.15;;;14.32;;
1446;SDS011;717;51.522;7.266;2023-04-16T12:55:22;16.33;;;13.98;;
1446;SDS011;717;51.522;7.266;2023-04-16T12:57:51;15.73;;;14.13;;
1446;SDS011;717;51.522;7.266;2023-04-16T13:00:20;15.13;;;13.40;;
1446;SDS011;717;51.522;7.266;2023-04-16T13:02:51;15.73;;;14.05;;
1446;SDS011;717;51.522;7.266;2023-04-16T13:05:20;15.77;;;14.13;;
1446;SDS011;717;51.522;7.266;2023-04-16T13:07:48;17.48;;;13.75;;
1446;SDS011;717;51.522;7.266;2023-04-16T13:10:17;15.85;;;13.75;;
1446;SDS011;717;51.522;7.266;2023-04-16T13:12:47;15.85;;;12.75;;
1446;SDS011;717;51.522;7.266;2023-04-16T13:15:16;14.75;;;13.25;;
1446;SDS011;717;51.522;7.266;2023-04-16T13:17:44;14.45;;;12.95;;
1446;SDS011;717;51.522;7.266;2023-04-16T13:20:16;15.45;;;13.00;;
1446;SDS011;717;51.522;7.266;2023-04-16T13:22:44;15.20;;;12.63;;
1446;SDS011;717;51.522;7.266;2023-04-16T13:25:13;13.98;;;12.57;;
1446;SDS011;717;51.522;7.266;2023-04-16T13:27:41;13.85;;;12.48;;
1446;SDS011;717;51.522;7.266;2023-04-16T13:30:10;13.18;;;11.77;;
1446;SDS011;717;51.522;7.266;2023-04-16T13:32:40;12.73;;;11.52;;
1446;SDS011;717;51.522;7.266;2023-04-16T13:35:08;12.77;;;11.48;;
1446;SDS011;717;51.522;7.266;2023-04-16T13:37:40;12.45;;;11.23;;
1446;SDS011;717;51.522;7.266;2023-04-16T13:40:08;12.98;;;11.63;;
1446;SDS011;717;51.522;7.266;2023-04-16T13:42:37;12.68;;;10.88;;
1446;SDS011;717;51.522;7.266;2023-04-16T13:45:05;12.68;;;11.10;;
1446;SDS011;717;51.522;7.266;2023-04-16T13:47:35;12.45;;;11.18;;
1446;SDS011;717;51.522;7.266;2023-04-16T13:50:07;11.65;;;10.45;;
1446;SDS011;717;51.522;7.266;2023-04-16T13:52:36;12.35;;;10.70;;
1446;SDS011;717;51.522;7.266;2023-04-16T13:55:08;12.25;;;10.93;;
1446;SDS011;717;51.522;7.266;2023-04-16T13:57:38;11.50;;;10.30;;
1446;SDS011;717;51.522;7.266;2023-04-16T14:00:08;11.07;;;9.98;;
1446;SDS011;717;51.522;7.266;2023-04-16T14:02:37;11.55;;;10.25;;
1446;SDS011;717;51.522;7.266;2023-04-16T14:05:06;10.85;;;9.75;;
1446;SDS011;717;51.522;7.266;2023-04-16T14:07:35;11.63;;;9.95;;
1446;SDS011;717;51.522;7.266;2023-04-16T14:10:04;11.68;;;10.57;;
1446;SDS011;717;51.522;7.266;2023-04-16T14:12:37;11.10;;;9.98;;
1446;SDS011;717;51.522;7.266;2023-04-16T14:15:06;12.27;;;10.98;;
1446;SDS011;717;51.522;7.266;2023-04-16T14:17:38;11.75;;;10.50;;
1446;SDS011;717;51.522;7.266;2023-04-16T14:20:07;12.70;;;10.95;;
1446;SDS011;717;51.522;7.266;2023-04-16T14:22:37;12.80;;;10.82;;
1446;SDS011;717;51.522;7.266;2023-04-16T14:25:10;11.25;;;10.07;;
1446;SDS011;717;51.522;7.266;2023-04-16T14:27:38;12.82;;;10.68;;
1446;SDS011;717;51.522;7.266;2023-04-16T14:30:08;11.65;;;10.45;;
1446;SDS011;717;51.522;7.266;2023-04-16T14:32:37;11.32;;;10.23;;
1446;SDS011;717;51.522;7.266;2023-04-16T14:35:05;12.73;;;10.85;;
1446;SDS011;717;51.522;7.266;2023-04-16T14:37:34;11.75;;;10.55;;
1446;SDS011;717;51.522;7.266;2023-04-16T14:40:04;13.00;;;10.48;;
1446;SDS011;717;51.522;7.266;2023-04-16T14:42:37;13.23;;;11.27;;
1446;SDS011;717;51.522;7.266;2023-04-16T14:45:06;11.50;;;10.23;;
1446;SDS011;717;51.522;7.266;2023-04-16T14:47:35;11.77;;;10.45;;
1446;SDS011;717;51.522;7.266;2023-04-16T14:50:09;11.05;;;9.98;;
1446;SDS011;717;51.522;7.266;2023-04-16T14:52:38;11.45;;;10.13;;
1446;SDS011;717;51.522;7.266;2023-04-16T14:55:07;11.23;;;10.02;;
1446;SDS011;717;51.522;7.266;2023-04-16T14:57:38;10.95;;;9.75;;
1446;SDS011;717;51.522;7.266;2023-04-16T15:00:07;9.95;;;8.90;;
1446;SDS011;717;51.522;7.266;2023-04-16T15:02:37;9.70;;;8.70;;
1446;SDS011;717;51.522;7.266;2023-04-16T15:05:06;9.57;;;8.68;;
1446;SDS011;717;51.522;7.266;2023-04-16T15:07:35;10.95;;;9.60;;
1446;SDS011;717;51.522;7.266;2023-04-16T15:10:04;10.20;;;9.18;;
1446;SDS011;717;51.522;7.266;2023-04-16T15:12:34;11.15;;;9.98;;
1446;SDS011;717;51.522;7.266;2023-04-16T15:15:07;10.57;;;9.57;;
1446;SDS011;717;51.522;7.266;2023-04-16T15:17:36;10.23;;;9.23;;